sensor_id;sensor_type;location;lat;lon;timestamp;P1;durP1;ratioP1;P2;durP2;ratioP2
485;SDS011;229;48.734;9.340;2023-05-07T00:02:19;3.50;;;3.05;;
485;SDS011;229;48.734;9.340;2023-05-07T00:04:47;6.13;;;3.42;;
485;SDS011;229;48.734;9.340;2023-05-07T00:07:15;7.60;;;3.00;;
485;SDS011;229;48.734;9.340;2023-05-07T00:09:42;6.72;;;3.17;;
485;SDS011;229;48.734;9.340;2023-05-07T00:12:09;5.15;;;3.20;;
485;SDS011;229;48.734;9.340;2023-05-07T00:14:36;4.38;;;3.25;;
485;SDS011;229;48.734;9.340;2023-05-07T00:17:04;7.47;;;3.38;;
485;SDS011;229;48.734;9.340;2023-05-07T00:19:31;4.25;;;3.40;;
485;SDS011;229;48.734;9.340;2023-05-07T00:21:59;5.68;;;3.97;;
485;SDS011;229;48.734;9.340;2023-05-07T00:24:26;4.07;;;3.50;;
485;SDS011;229;48.734;9.340;2023-05-07T00:26:54;4.32;;;3.63;;
485;SDS011;229;48.734;9.340;2023-05-07T00:29:23;4.55;;;4.25;;
485;SDS011;229;48.734;9.340;2023-05-07T00:31:50;7.32;;;4.93;;
485;SDS011;229;48.734;9.340;2023-05-07T00:34:19;6.05;;;5.57;;
485;SDS011;229;48.734;9.340;2023-05-07T00:36:46;10.25;;;6.93;;
485;SDS011;229;48.734;9.340;2023-05-07T00:39:14;9.23;;;4.82;;
485;SDS011;229;48.734;9.340;2023-05-07T00:41:41;7.72;;;3.90;;
485;SDS011;229;48.734;9.340;2023-05-07T00:44:09;3.88;;;3.30;;
485;SDS011;229;48.734;9.340;2023-05-07T00:46:36;8.00;;;3.85;;
485;SDS011;229;48.734;9.340;2023-05-07T00:49:03;5.65;;;4.05;;
485;SDS011;229;48.734;9.340;2023-05-07T00:51:32;5.88;;;3.97;;
485;SDS011;229;48.734;9.340;2023-05-07T00:53:59;9.48;;;4.57;;
485;SDS011;229;48.734;9.340;2023-05-07T00:56:28;5.22;;;4.03;;
485;SDS011;229;48.734;9.340;2023-05-07T00:58:55;5.65;;;4.90;;
485;SDS011;229;48.734;9.340;2023-05-07T01:01:22;5.80;;;3.50;;
485;SDS011;229;48.734;9.340;2023-05-07T01:03:50;6.32;;;3.10;;
485;SDS011;229;48.734;9.340;2023-05-07T01:06:17;5.20;;;3.45;;
485;SDS011;229;48.734;9.340;2023-05-07T01:08:45;6.45;;;3.15;;
485;SDS011;229;48.734;9.340;2023-05-07T01:11:13;6.25;;;4.30;;
485;SDS011;229;48.734;9.340;2023-05-07T01:13:42;5.13;;;3.30;;
485;SDS011;229;48.734;9.340;2023-05-07T01:16:09;7.65;;;3.70;;
485;SDS011;229;48.734;9.340;2023-05-07T01:18:37;4.47;;;4.18;;
485;SDS011;229;48.734;9.340;2023-05-07T01:21:04;4.28;;;3.60;;
485;SDS011;229;48.734;9.340;2023-05-07T01:23:34;5.72;;;4.05;;
485;SDS011;229;48.734;9.340;2023-05-07T01:26:01;13.23;;;7.60;;
485;SDS011;229;48.734;9.340;2023-05-07T01:28:29;7.63;;;3.50;;
485;SDS011;229;48.734;9.340;2023-05-07T01:30:57;5.70;;;3.75;;
485;SDS011;229;48.734;9.340;2023-05-07T01:33:27;4.97;;;3.80;;
485;SDS011;229;48.734;9.340;2023-05-07T01:35:57;7.35;;;4.60;;
485;SDS011;229;48.734;9.340;2023-05-07T01:38:25;6.05;;;4.10;;
485;SDS011;229;48.734;9.340;2023-05-07T01:40:54;4.95;;;4.20;;
485;SDS011;229;48.734;9.340;2023-05-07T01:43:22;7.82;;;5.00;;
485;SDS011;229;48.734;9.340;2023-05-07T01:45:49;6.90;;;3.88;;
485;SDS011;229;48.734;9.340;2023-05-07T01:48:17;4.70;;;4.07;;
485;SDS011;229;48.734;9.340;2023-05-07T01:50:45;7.10;;;4.50;;
485;SDS011;229;48.734;9.340;2023-05-07T01:53:13;5.22;;;3.83;;
485;SDS011;229;48.734;9.340;2023-05-07T01:55:40;9.55;;;3.92;;
485;SDS011;229;48.734;9.340;2023-05-07T01:58:08;4.72;;;3.65;;
485;SDS011;229;48.734;9.340;2023-05-07T02:00:36;6.82;;;4.25;;
485;SDS011;229;48.734;9.340;2023-05-07T02:03:03;10.10;;;6.32;;
485;SDS011;229;48.734;9.340;2023-05-07T02:05:30;6.70;;;5.72;;
485;SDS011;229;48.734;9.340;2023-05-07T02:07:57;6.15;;;4.57;;
485;SDS011;229;48.734;9.340;2023-05-07T02:10:25;10.60;;;5.90;;
485;SDS011;229;48.734;9.340;2023-05-07T02:12:52;8.02;;;4.80;;
485;SDS011;229;48.734;9.340;2023-05-07T02:15:20;6.22;;;4.53;;
485;SDS011;229;48.734;9.340;2023-05-07T02:17:57;5.72;;;4.07;;
485;SDS011;229;48.734;9.340;2023-05-07T02:20:25;5.65;;;4.30;;
485;SDS011;229;48.734;9.340;2023-05-07T02:22:52;4.80;;;4.10;;
485;SDS011;229;48.734;9.340;2023-05-07T02:25:19;7.78;;;5.28;;
485;SDS011;229;48.734;9.340;2023-05-07T02:27:47;6.93;;;4.85;;
485;SDS011;229;48.734;9.340;2023-05-07T02:30:14;6.05;;;4.93;;
485;SDS011;229;48.734;9.340;2023-05-07T02:32:43;8.02;;;4.88;;
485;SDS011;229;48.734;9.340;2023-05-07T02:35:10;5.13;;;4.15;;
485;SDS011;229;48.734;9.340;2023-05-07T02:37:37;8.45;;;3.85;;
485;SDS011;229;48.734;9.340;2023-05-07T02:40:05;8.43;;;4.20;;
485;SDS011;229;48.734;9.340;2023-05-07T02:42:32;4.90;;;3.83;;
485;SDS011;229;48.734;9.340;2023-05-07T02:44:59;5.15;;;3.67;;
485;SDS011;229;48.734;9.340;2023-05-07T02:47:27;5.70;;;3.83;;
485;SDS011;229;48.734;9.340;2023-05-07T02:49:55;6.18;;;3.85;;
485;SDS011;229;48.734;9.340;2023-05-07T02:52:22;6.20;;;4.65;;
485;SDS011;229;48.734;9.340;2023-05-07T02:54:49;6.03;;;4.18;;
485;SDS011;229;48.734;9.340;2023-05-07T02:57:17;6.78;;;4.45;;
485;SDS011;229;48.734;9.340;2023-05-07T02:59:44;6.40;;;4.10;;
485;SDS011;229;48.734;9.340;2023-05-07T03:02:11;6.05;;;4.50;;
485;SDS011;229;48.734;9.340;2023-05-07T03:04:39;6.15;;;4.63;;
485;SDS011;229;48.734;9.340;2023-05-07T03:07:08;6.10;;;4.90;;
485;SDS011;229;48.734;9.340;2023-05-07T03:09:35;7.13;;;4.60;;
485;SDS011;229;48.734;9.340;2023-05-07T03:12:02;6.00;;;4.60;;
485;SDS011;229;48.734;9.340;2023-05-07T03:14:29;5.30;;;3.90;;
485;SDS011;229;48.734;9.340;2023-05-07T03:16:56;11.73;;;4.43;;
485;SDS011;229;48.734;9.340;2023-05-07T03:19:24;5.93;;;4.50;;
485;SDS011;229;48.734;9.340;2023-05-07T03:21:51;8.05;;;4.10;;
485;SDS011;229;48.734;9.340;2023-05-07T03:24:19;8.23;;;4.18;;
485;SDS011;229;48.734;9.340;2023-05-07T03:26:47;8.43;;;4.47;;
485;SDS011;229;48.734;9.340;2023-05-07T03:29:14;5.43;;;4.90;;
485;SDS011;229;48.734;9.340;2023-05-07T03:31:41;7.22;;;4.50;;
485;SDS011;229;48.734;9.340;2023-05-07T03:34:08;6.75;;;4.45;;
485;SDS011;229;48.734;9.340;2023-05-07T03:36:36;5.25;;;3.85;;
485;SDS011;229;48.734;9.340;2023-05-07T03:39:03;7.22;;;4.85;;
485;SDS011;229;48.734;9.340;2023-05-07T03:41:31;5.25;;;4.40;;
485;SDS011;229;48.734;9.340;2023-05-07T03:43:59;6.18;;;4.35;;
485;SDS011;229;48.734;9.340;2023-05-07T03:46:26;7.10;;;4.07;;
485;SDS011;229;48.734;9.340;2023-05-07T03:48:53;5.40;;;4.47;;
485;SDS011;229;48.734;9.340;2023-05-07T03:51:20;6.97;;;4.50;;
485;SDS011;229;48.734;9.340;2023-05-07T03:53:48;5.25;;;4.20;;
485;SDS011;229;48.734;9.340;2023-05-07T03:56:17;6.85;;;4.10;;
485;SDS011;229;48.734;9.340;2023-05-07T03:58:46;4.45;;;3.72;;
485;SDS011;229;48.734;9.340;2023-05-07T04:01:14;5.93;;;3.58;;
485;SDS011;229;48.734;9.340;2023-05-07T04:03:41;4.95;;;3.88;;
485;SDS011;229;48.734;9.340;2023-05-07T04:06:08;5.30;;;4.35;;
485;SDS011;229;48.734;9.340;2023-05-07T04:08:36;4.15;;;3.90;;
485;SDS011;229;48.734;9.340;2023-05-07T04:11:03;5.45;;;3.95;;
485;SDS011;229;48.734;9.340;2023-05-07T04:13:30;3.70;;;3.28;;
485;SDS011;229;48.734;9.340;2023-05-07T04:16:00;5.30;;;3.70;;
485;SDS011;229;48.734;9.340;2023-05-07T04:18:27;4.07;;;3.65;;
485;SDS011;229;48.734;9.340;2023-05-07T04:20:55;5.05;;;3.50;;
485;SDS011;229;48.734;9.340;2023-05-07T04:23:22;5.80;;;3.67;;
485;SDS011;229;48.734;9.340;2023-05-07T04:25:49;6.85;;;3.75;;
485;SDS011;229;48.734;9.340;2023-05-07T04:28:17;4.80;;;3.50;;
485;SDS011;229;48.734;9.340;2023-05-07T04:30:44;5.63;;;3.97;;
485;SDS011;229;48.734;9.340;2023-05-07T04:33:13;4.65;;;3.50;;
485;SDS011;229;48.734;9.340;2023-05-07T04:35:41;7.03;;;3.95;;
485;SDS011;229;48.734;9.340;2023-05-07T04:38:09;4.18;;;3.45;;
485;SDS011;229;48.734;9.340;2023-05-07T04:40:36;3.67;;;3.33;;
485;SDS011;229;48.734;9.340;2023-05-07T04:43:04;4.90;;;3.80;;
485;SDS011;229;48.734;9.340;2023-05-07T04:45:32;4.47;;;3.75;;
485;SDS011;229;48.734;9.340;2023-05-07T04:47:59;4.15;;;3.90;;
485;SDS011;229;48.734;9.340;2023-05-07T04:50:28;7.28;;;3.80;;
485;SDS011;229;48.734;9.340;2023-05-07T04:52:56;4.32;;;3.28;;
485;SDS011;229;48.734;9.340;2023-05-07T04:55:23;8.00;;;3.95;;
485;SDS011;229;48.734;9.340;2023-05-07T04:57:51;5.60;;;4.25;;
485;SDS011;229;48.734;9.340;2023-05-07T05:00:18;5.25;;;4.07;;
485;SDS011;229;48.734;9.340;2023-05-07T05:02:46;5.00;;;3.85;;
485;SDS011;229;48.734;9.340;2023-05-07T05:05:13;8.52;;;4.25;;
485;SDS011;229;48.734;9.340;2023-05-07T05:07:42;6.55;;;3.92;;
485;SDS011;229;48.734;9.340;2023-05-07T05:10:09;6.60;;;3.70;;
485;SDS011;229;48.734;9.340;2023-05-07T05:12:36;4.85;;;4.28;;
485;SDS011;229;48.734;9.340;2023-05-07T05:15:04;3.90;;;3.67;;
485;SDS011;229;48.734;9.340;2023-05-07T05:17:31;5.60;;;4.20;;
485;SDS011;229;48.734;9.340;2023-05-07T05:19:59;6.03;;;3.63;;
485;SDS011;229;48.734;9.340;2023-05-07T05:22:27;4.47;;;4.00;;
485;SDS011;229;48.734;9.340;2023-05-07T05:24:57;8.38;;;6.50;;
485;SDS011;229;48.734;9.340;2023-05-07T05:27:25;7.40;;;5.70;;
485;SDS011;229;48.734;9.340;2023-05-07T05:29:53;6.78;;;5.43;;
485;SDS011;229;48.734;9.340;2023-05-07T05:32:20;11.45;;;6.10;;
485;SDS011;229;48.734;9.340;2023-05-07T05:34:47;8.95;;;6.18;;
485;SDS011;229;48.734;9.340;2023-05-07T05:37:14;9.07;;;7.30;;
485;SDS011;229;48.734;9.340;2023-05-07T05:39:41;10.50;;;6.05;;
485;SDS011;229;48.734;9.340;2023-05-07T05:42:10;6.47;;;5.88;;
485;SDS011;229;48.734;9.340;2023-05-07T05:44:37;11.20;;;7.07;;
485;SDS011;229;48.734;9.340;2023-05-07T05:47:04;12.93;;;6.80;;
485;SDS011;229;48.734;9.340;2023-05-07T05:49:32;8.25;;;5.93;;
485;SDS011;229;48.734;9.340;2023-05-07T05:51:59;10.55;;;6.53;;
485;SDS011;229;48.734;9.340;2023-05-07T05:54:26;9.30;;;6.25;;
485;SDS011;229;48.734;9.340;2023-05-07T05:56:53;7.70;;;5.55;;
485;SDS011;229;48.734;9.340;2023-05-07T05:59:23;8.82;;;5.13;;
485;SDS011;229;48.734;9.340;2023-05-07T06:01:50;10.52;;;4.70;;
485;SDS011;229;48.734;9.340;2023-05-07T06:04:17;7.30;;;4.82;;
485;SDS011;229;48.734;9.340;2023-05-07T06:06:44;7.18;;;5.60;;
485;SDS011;229;48.734;9.340;2023-05-07T06:09:11;6.57;;;5.00;;
485;SDS011;229;48.734;9.340;2023-05-07T06:11:39;5.72;;;4.10;;
485;SDS011;229;48.734;9.340;2023-05-07T06:14:06;8.40;;;4.30;;
485;SDS011;229;48.734;9.340;2023-05-07T06:16:35;6.17;;;4.30;;
485;SDS011;229;48.734;9.340;2023-05-07T06:19:03;5.90;;;3.90;;
485;SDS011;229;48.734;9.340;2023-05-07T06:21:30;7.07;;;4.40;;
485;SDS011;229;48.734;9.340;2023-05-07T06:23:57;5.57;;;4.17;;
485;SDS011;229;48.734;9.340;2023-05-07T06:26:24;5.83;;;4.40;;
485;SDS011;229;48.734;9.340;2023-05-07T06:28:51;5.57;;;4.53;;
485;SDS011;229;48.734;9.340;2023-05-07T06:31:19;11.37;;;3.90;;
485;SDS011;229;48.734;9.340;2023-05-07T06:33:48;8.90;;;4.90;;
485;SDS011;229;48.734;9.340;2023-05-07T06:36:15;5.20;;;4.00;;
485;SDS011;229;48.734;9.340;2023-05-07T06:38:42;4.47;;;4.20;;
485;SDS011;229;48.734;9.340;2023-05-07T06:41:10;5.13;;;4.10;;
485;SDS011;229;48.734;9.340;2023-05-07T06:43:37;5.63;;;3.73;;
485;SDS011;229;48.734;9.340;2023-05-07T06:46:04;4.93;;;3.93;;
485;SDS011;229;48.734;9.340;2023-05-07T06:48:31;6.40;;;3.70;;
485;SDS011;229;48.734;9.340;2023-05-07T06:51:00;5.47;;;4.10;;
485;SDS011;229;48.734;9.340;2023-05-07T06:53:27;5.17;;;3.83;;
485;SDS011;229;48.734;9.340;2023-05-07T06:55:55;5.97;;;4.23;;
485;SDS011;229;48.734;9.340;2023-05-07T06:58:23;5.97;;;4.23;;
485;SDS011;229;48.734;9.340;2023-05-07T07:00:50;6.83;;;5.57;;
485;SDS011;229;48.734;9.340;2023-05-07T07:03:17;7.73;;;4.27;;
485;SDS011;229;48.734;9.340;2023-05-07T07:05:44;6.53;;;4.50;;
485;SDS011;229;48.734;9.340;2023-05-07T07:08:13;8.20;;;5.57;;
485;SDS011;229;48.734;9.340;2023-05-07T07:10:42;5.47;;;4.23;;
485;SDS011;229;48.734;9.340;2023-05-07T07:13:09;7.00;;;4.47;;
485;SDS011;229;48.734;9.340;2023-05-07T07:15:36;3.53;;;3.40;;
485;SDS011;229;48.734;9.340;2023-05-07T07:18:03;8.83;;;3.70;;
485;SDS011;229;48.734;9.340;2023-05-07T07:20:31;4.93;;;3.40;;
485;SDS011;229;48.734;9.340;2023-05-07T07:22:58;5.60;;;4.00;;
485;SDS011;229;48.734;9.340;2023-05-07T07:25:27;6.60;;;4.27;;
485;SDS011;229;48.734;9.340;2023-05-07T07:27:54;3.97;;;3.80;;
485;SDS011;229;48.734;9.340;2023-05-07T07:30:21;5.23;;;3.70;;
485;SDS011;229;48.734;9.340;2023-05-07T07:32:48;3.97;;;3.80;;
485;SDS011;229;48.734;9.340;2023-05-07T07:35:16;7.73;;;4.30;;
485;SDS011;229;48.734;9.340;2023-05-07T07:37:44;4.30;;;3.80;;
485;SDS011;229;48.734;9.340;2023-05-07T07:40:11;6.27;;;3.80;;
485;SDS011;229;48.734;9.340;2023-05-07T07:42:40;3.57;;;3.40;;
485;SDS011;229;48.734;9.340;2023-05-07T07:45:07;4.50;;;3.40;;
485;SDS011;229;48.734;9.340;2023-05-07T07:47:35;7.07;;;4.43;;
485;SDS011;229;48.734;9.340;2023-05-07T07:50:02;5.00;;;3.30;;
485;SDS011;229;48.734;9.340;2023-05-07T07:52:29;8.13;;;3.97;;
485;SDS011;229;48.734;9.340;2023-05-07T07:54:56;8.80;;;3.70;;
485;SDS011;229;48.734;9.340;2023-05-07T07:57:24;6.63;;;3.77;;
485;SDS011;229;48.734;9.340;2023-05-07T07:59:52;5.73;;;3.50;;
485;SDS011;229;48.734;9.340;2023-05-07T08:02:19;4.73;;;4.13;;
485;SDS011;229;48.734;9.340;2023-05-07T08:04:47;7.23;;;4.17;;
485;SDS011;229;48.734;9.340;2023-05-07T08:07:14;5.90;;;3.93;;
485;SDS011;229;48.734;9.340;2023-05-07T08:09:43;5.20;;;4.00;;
485;SDS011;229;48.734;9.340;2023-05-07T08:12:10;4.60;;;3.83;;
485;SDS011;229;48.734;9.340;2023-05-07T08:14:38;6.70;;;3.63;;
485;SDS011;229;48.734;9.340;2023-05-07T08:17:07;5.70;;;4.03;;
485;SDS011;229;48.734;9.340;2023-05-07T08:19:35;4.57;;;3.87;;
485;SDS011;229;48.734;9.340;2023-05-07T08:22:02;4.83;;;4.30;;
485;SDS011;229;48.734;9.340;2023-05-07T08:24:30;5.43;;;4.33;;
485;SDS011;229;48.734;9.340;2023-05-07T08:26:57;4.80;;;4.00;;
485;SDS011;229;48.734;9.340;2023-05-07T08:29:25;4.30;;;4.00;;
485;SDS011;229;48.734;9.340;2023-05-07T08:31:52;6.53;;;4.30;;
485;SDS011;229;48.734;9.340;2023-05-07T08:34:21;4.90;;;3.80;;
485;SDS011;229;48.734;9.340;2023-05-07T08:36:48;3.90;;;3.70;;
485;SDS011;229;48.734;9.340;2023-05-07T08:39:16;4.03;;;3.77;;
485;SDS011;229;48.734;9.340;2023-05-07T08:41:44;5.77;;;4.00;;
485;SDS011;229;48.734;9.340;2023-05-07T08:44:12;4.00;;;3.80;;
485;SDS011;229;48.734;9.340;2023-05-07T08:46:40;4.77;;;4.13;;
485;SDS011;229;48.734;9.340;2023-05-07T08:49:08;5.57;;;4.20;;
485;SDS011;229;48.734;9.340;2023-05-07T08:51:37;6.00;;;3.97;;
485;SDS011;229;48.734;9.340;2023-05-07T08:54:04;5.93;;;3.97;;
485;SDS011;229;48.734;9.340;2023-05-07T08:56:32;6.90;;;5.57;;
485;SDS011;229;48.734;9.340;2023-05-07T08:58:59;4.53;;;4.23;;
485;SDS011;229;48.734;9.340;2023-05-07T09:01:27;4.40;;;4.10;;
485;SDS011;229;48.734;9.340;2023-05-07T09:03:54;6.73;;;4.57;;
485;SDS011;229;48.734;9.340;2023-05-07T09:06:21;3.83;;;3.63;;
485;SDS011;229;48.734;9.340;2023-05-07T09:08:51;5.20;;;4.27;;
485;SDS011;229;48.734;9.340;2023-05-07T09:11:19;4.03;;;3.87;;
485;SDS011;229;48.734;9.340;2023-05-07T09:13:48;7.73;;;4.13;;
485;SDS011;229;48.734;9.340;2023-05-07T09:16:15;3.47;;;3.20;;
485;SDS011;229;48.734;9.340;2023-05-07T09:18:42;5.30;;;3.63;;
485;SDS011;229;48.734;9.340;2023-05-07T09:21:11;4.33;;;3.63;;
485;SDS011;229;48.734;9.340;2023-05-07T09:23:41;3.40;;;3.20;;
485;SDS011;229;48.734;9.340;2023-05-07T09:26:10;4.13;;;3.80;;
485;SDS011;229;48.734;9.340;2023-05-07T09:28:38;3.73;;;3.53;;
485;SDS011;229;48.734;9.340;2023-05-07T09:31:06;4.50;;;3.60;;
485;SDS011;229;48.734;9.340;2023-05-07T09:33:33;3.93;;;3.73;;
485;SDS011;229;48.734;9.340;2023-05-07T09:36:03;3.90;;;3.77;;
485;SDS011;229;48.734;9.340;2023-05-07T09:38:31;5.77;;;3.73;;
485;SDS011;229;48.734;9.340;2023-05-07T09:41:02;7.20;;;3.47;;
485;SDS011;229;48.734;9.340;2023-05-07T09:43:32;5.80;;;3.03;;
485;SDS011;229;48.734;9.340;2023-05-07T09:46:02;7.20;;;3.77;;
485;SDS011;229;48.734;9.340;2023-05-07T09:48:29;6.00;;;3.50;;
485;SDS011;229;48.734;9.340;2023-05-07T09:50:57;4.40;;;3.67;;
485;SDS011;229;48.734;9.340;2023-05-07T09:53:29;5.10;;;3.07;;
485;SDS011;229;48.734;9.340;2023-05-07T09:55:56;2.80;;;2.60;;
485;SDS011;229;48.734;9.340;2023-05-07T09:58:24;5.00;;;3.90;;
485;SDS011;229;48.734;9.340;2023-05-07T10:00:54;4.00;;;2.90;;
485;SDS011;229;48.734;9.340;2023-05-07T10:03:21;4.20;;;2.87;;
485;SDS011;229;48.734;9.340;2023-05-07T10:05:48;3.30;;;3.10;;
485;SDS011;229;48.734;9.340;2023-05-07T10:08:16;3.33;;;3.13;;
485;SDS011;229;48.734;9.340;2023-05-07T10:10:45;5.40;;;3.53;;
485;SDS011;229;48.734;9.340;2023-05-07T10:13:12;4.57;;;3.90;;
485;SDS011;229;48.734;9.340;2023-05-07T10:15:39;3.40;;;3.27;;
485;SDS011;229;48.734;9.340;2023-05-07T10:18:08;5.03;;;3.67;;
485;SDS011;229;48.734;9.340;2023-05-07T10:20:35;3.90;;;3.17;;
485;SDS011;229;48.734;9.340;2023-05-07T10:23:04;4.13;;;3.70;;
485;SDS011;229;48.734;9.340;2023-05-07T10:25:32;5.97;;;3.20;;
485;SDS011;229;48.734;9.340;2023-05-07T10:28:00;3.90;;;3.27;;
485;SDS011;229;48.734;9.340;2023-05-07T10:30:32;5.47;;;3.60;;
485;SDS011;229;48.734;9.340;2023-05-07T10:33:01;3.60;;;3.47;;
485;SDS011;229;48.734;9.340;2023-05-07T10:35:37;4.83;;;3.77;;
485;SDS011;229;48.734;9.340;2023-05-07T10:38:05;5.00;;;3.57;;
485;SDS011;229;48.734;9.340;2023-05-07T10:40:33;4.90;;;3.27;;
485;SDS011;229;48.734;9.340;2023-05-07T10:43:01;4.90;;;3.33;;
485;SDS011;229;48.734;9.340;2023-05-07T10:45:30;3.97;;;3.50;;
485;SDS011;229;48.734;9.340;2023-05-07T10:48:07;10.50;;;3.80;;
485;SDS011;229;48.734;9.340;2023-05-07T10:50:36;6.53;;;3.70;;
485;SDS011;229;48.734;9.340;2023-05-07T10:53:23;7.30;;;3.77;;
485;SDS011;229;48.734;9.340;2023-05-07T10:55:51;4.57;;;3.50;;
485;SDS011;229;48.734;9.340;2023-05-07T10:58:38;4.50;;;3.20;;
485;SDS011;229;48.734;9.340;2023-05-07T11:01:06;5.10;;;3.20;;
485;SDS011;229;48.734;9.340;2023-05-07T11:03:33;3.50;;;3.37;;
485;SDS011;229;48.734;9.340;2023-05-07T11:06:12;4.37;;;3.53;;
485;SDS011;229;48.734;9.340;2023-05-07T11:08:54;4.00;;;3.80;;
485;SDS011;229;48.734;9.340;2023-05-07T11:14:03;4.70;;;3.83;;
485;SDS011;229;48.734;9.340;2023-05-07T11:16:31;3.80;;;3.60;;
485;SDS011;229;48.734;9.340;2023-05-07T11:19:01;3.80;;;3.60;;
485;SDS011;229;48.734;9.340;2023-05-07T11:21:33;3.30;;;3.10;;
485;SDS011;229;48.734;9.340;2023-05-07T11:24:01;3.50;;;3.30;;
485;SDS011;229;48.734;9.340;2023-05-07T11:26:29;4.00;;;3.40;;
485;SDS011;229;48.734;9.340;2023-05-07T11:28:57;3.70;;;3.23;;
485;SDS011;229;48.734;9.340;2023-05-07T11:31:25;6.10;;;4.07;;
485;SDS011;229;48.734;9.340;2023-05-07T11:33:54;5.33;;;3.23;;
485;SDS011;229;48.734;9.340;2023-05-07T11:36:22;5.77;;;3.50;;
485;SDS011;229;48.734;9.340;2023-05-07T11:38:51;6.40;;;3.80;;
485;SDS011;229;48.734;9.340;2023-05-07T11:41:18;3.67;;;2.87;;
485;SDS011;229;48.734;9.340;2023-05-07T11:43:55;3.50;;;2.80;;
485;SDS011;229;48.734;9.340;2023-05-07T11:46:22;5.10;;;3.47;;
485;SDS011;229;48.734;9.340;2023-05-07T11:48:49;3.23;;;2.97;;
485;SDS011;229;48.734;9.340;2023-05-07T11:51:20;4.30;;;3.23;;
485;SDS011;229;48.734;9.340;2023-05-07T11:53:47;4.30;;;3.00;;
485;SDS011;229;48.734;9.340;2023-05-07T11:56:16;4.50;;;3.63;;
485;SDS011;229;48.734;9.340;2023-05-07T11:58:44;6.10;;;3.53;;
485;SDS011;229;48.734;9.340;2023-05-07T12:01:12;4.87;;;3.30;;
485;SDS011;229;48.734;9.340;2023-05-07T12:03:41;4.80;;;3.53;;
485;SDS011;229;48.734;9.340;2023-05-07T12:06:09;3.67;;;3.50;;
485;SDS011;229;48.734;9.340;2023-05-07T12:08:37;4.30;;;3.87;;
485;SDS011;229;48.734;9.340;2023-05-07T12:11:07;5.00;;;3.03;;
485;SDS011;229;48.734;9.340;2023-05-07T12:13:36;3.70;;;3.20;;
485;SDS011;229;48.734;9.340;2023-05-07T12:16:03;3.60;;;3.40;;
485;SDS011;229;48.734;9.340;2023-05-07T12:18:31;4.83;;;3.77;;
485;SDS011;229;48.734;9.340;2023-05-07T12:20:58;5.93;;;3.63;;
485;SDS011;229;48.734;9.340;2023-05-07T12:23:26;4.27;;;3.37;;
485;SDS011;229;48.734;9.340;2023-05-07T12:25:53;3.40;;;3.17;;
485;SDS011;229;48.734;9.340;2023-05-07T12:28:20;3.30;;;3.10;;
485;SDS011;229;48.734;9.340;2023-05-07T12:30:50;3.23;;;3.03;;
485;SDS011;229;48.734;9.340;2023-05-07T12:33:17;3.73;;;3.20;;
485;SDS011;229;48.734;9.340;2023-05-07T12:35:46;5.50;;;2.93;;
485;SDS011;229;48.734;9.340;2023-05-07T12:38:15;5.50;;;3.20;;
485;SDS011;229;48.734;9.340;2023-05-07T12:40:44;3.90;;;3.70;;
485;SDS011;229;48.734;9.340;2023-05-07T12:43:15;5.97;;;4.30;;
485;SDS011;229;48.734;9.340;2023-05-07T12:45:43;4.80;;;3.63;;
485;SDS011;229;48.734;9.340;2023-05-07T12:48:12;8.33;;;3.63;;
485;SDS011;229;48.734;9.340;2023-05-07T12:50:39;3.90;;;3.73;;
485;SDS011;229;48.734;9.340;2023-05-07T12:53:09;4.80;;;3.70;;
485;SDS011;229;48.734;9.340;2023-05-07T12:55:40;4.07;;;3.77;;
485;SDS011;229;48.734;9.340;2023-05-07T12:58:07;6.10;;;3.60;;
485;SDS011;229;48.734;9.340;2023-05-07T13:00:37;4.20;;;3.57;;
485;SDS011;229;48.734;9.340;2023-05-07T13:03:08;6.13;;;3.53;;
485;SDS011;229;48.734;9.340;2023-05-07T13:05:37;11.33;;;5.43;;
485;SDS011;229;48.734;9.340;2023-05-07T13:08:05;8.07;;;4.43;;
485;SDS011;229;48.734;9.340;2023-05-07T13:10:34;10.77;;;4.27;;
485;SDS011;229;48.734;9.340;2023-05-07T13:13:02;13.70;;;5.10;;
485;SDS011;229;48.734;9.340;2023-05-07T13:15:29;12.87;;;5.70;;
485;SDS011;229;48.734;9.340;2023-05-07T13:17:57;10.90;;;4.90;;
485;SDS011;229;48.734;9.340;2023-05-07T13:20:24;10.37;;;4.87;;
485;SDS011;229;48.734;9.340;2023-05-07T13:22:52;10.10;;;5.53;;
485;SDS011;229;48.734;9.340;2023-05-07T13:25:20;7.70;;;4.60;;
485;SDS011;229;48.734;9.340;2023-05-07T13:27:47;8.70;;;5.10;;
485;SDS011;229;48.734;9.340;2023-05-07T13:30:14;9.33;;;4.50;;
485;SDS011;229;48.734;9.340;2023-05-07T13:32:41;5.90;;;4.00;;
485;SDS011;229;48.734;9.340;2023-05-07T13:35:10;4.10;;;3.83;;
485;SDS011;229;48.734;9.340;2023-05-07T13:37:37;6.30;;;3.20;;
485;SDS011;229;48.734;9.340;2023-05-07T13:40:07;5.50;;;4.30;;
485;SDS011;229;48.734;9.340;2023-05-07T13:42:34;4.10;;;3.00;;
485;SDS011;229;48.734;9.340;2023-05-07T13:45:02;8.30;;;6.53;;
485;SDS011;229;48.734;9.340;2023-05-07T13:47:30;7.90;;;3.70;;
485;SDS011;229;48.734;9.340;2023-05-07T13:49:57;4.03;;;2.80;;
485;SDS011;229;48.734;9.340;2023-05-07T13:52:24;3.80;;;3.17;;
485;SDS011;229;48.734;9.340;2023-05-07T13:54:51;6.30;;;3.00;;
485;SDS011;229;48.734;9.340;2023-05-07T13:57:21;6.80;;;3.03;;
485;SDS011;229;48.734;9.340;2023-05-07T13:59:48;9.30;;;4.00;;
485;SDS011;229;48.734;9.340;2023-05-07T14:02:15;6.63;;;3.30;;
485;SDS011;229;48.734;9.340;2023-05-07T14:04:43;6.93;;;3.10;;
485;SDS011;229;48.734;9.340;2023-05-07T14:07:10;6.47;;;3.90;;
485;SDS011;229;48.734;9.340;2023-05-07T14:09:37;6.53;;;4.03;;
485;SDS011;229;48.734;9.340;2023-05-07T14:12:04;3.70;;;2.90;;
485;SDS011;229;48.734;9.340;2023-05-07T14:14:33;3.93;;;2.77;;
485;SDS011;229;48.734;9.340;2023-05-07T14:17:00;7.27;;;2.97;;
485;SDS011;229;48.734;9.340;2023-05-07T14:19:27;9.77;;;3.33;;
485;SDS011;229;48.734;9.340;2023-05-07T14:21:55;9.70;;;3.60;;
485;SDS011;229;48.734;9.340;2023-05-07T14:24:22;4.40;;;3.13;;
485;SDS011;229;48.734;9.340;2023-05-07T14:26:49;5.07;;;2.80;;
485;SDS011;229;48.734;9.340;2023-05-07T14:29:16;5.00;;;3.40;;
485;SDS011;229;48.734;9.340;2023-05-07T14:31:48;4.50;;;3.00;;
485;SDS011;229;48.734;9.340;2023-05-07T14:34:15;4.23;;;3.30;;
485;SDS011;229;48.734;9.340;2023-05-07T14:36:43;4.40;;;3.47;;
485;SDS011;229;48.734;9.340;2023-05-07T14:39:10;4.60;;;3.17;;
485;SDS011;229;48.734;9.340;2023-05-07T14:41:37;5.00;;;3.07;;
485;SDS011;229;48.734;9.340;2023-05-07T14:44:04;6.33;;;3.57;;
485;SDS011;229;48.734;9.340;2023-05-07T14:46:31;5.80;;;3.33;;
485;SDS011;229;48.734;9.340;2023-05-07T14:49:01;5.63;;;2.80;;
485;SDS011;229;48.734;9.340;2023-05-07T14:51:28;5.67;;;3.10;;
485;SDS011;229;48.734;9.340;2023-05-07T14:53:55;4.00;;;2.50;;
485;SDS011;229;48.734;9.340;2023-05-07T14:56:23;3.80;;;2.70;;
485;SDS011;229;48.734;9.340;2023-05-07T14:58:50;5.07;;;2.80;;
485;SDS011;229;48.734;9.340;2023-05-07T15:01:17;4.73;;;2.90;;
485;SDS011;229;48.734;9.340;2023-05-07T15:03:44;7.33;;;2.70;;
485;SDS011;229;48.734;9.340;2023-05-07T15:06:13;4.73;;;3.10;;
485;SDS011;229;48.734;9.340;2023-05-07T15:08:40;5.40;;;2.93;;
485;SDS011;229;48.734;9.340;2023-05-07T15:11:08;6.70;;;3.20;;
485;SDS011;229;48.734;9.340;2023-05-07T15:13:35;7.10;;;2.90;;
485;SDS011;229;48.734;9.340;2023-05-07T15:16:02;8.90;;;3.90;;
485;SDS011;229;48.734;9.340;2023-05-07T15:18:29;3.80;;;2.90;;
485;SDS011;229;48.734;9.340;2023-05-07T15:20:56;5.47;;;2.80;;
485;SDS011;229;48.734;9.340;2023-05-07T15:23:25;3.67;;;2.73;;
485;SDS011;229;48.734;9.340;2023-05-07T15:25:52;10.53;;;2.87;;
485;SDS011;229;48.734;9.340;2023-05-07T15:28:20;5.73;;;3.20;;
485;SDS011;229;48.734;9.340;2023-05-07T15:30:47;4.87;;;3.80;;
485;SDS011;229;48.734;9.340;2023-05-07T15:33:14;4.30;;;3.17;;
485;SDS011;229;48.734;9.340;2023-05-07T15:35:42;11.80;;;3.73;;
485;SDS011;229;48.734;9.340;2023-05-07T15:38:09;4.37;;;3.80;;
485;SDS011;229;48.734;9.340;2023-05-07T15:40:39;6.97;;;4.50;;
485;SDS011;229;48.734;9.340;2023-05-07T15:43:07;7.77;;;3.90;;
485;SDS011;229;48.734;9.340;2023-05-07T15:45:38;9.00;;;4.60;;
485;SDS011;229;48.734;9.340;2023-05-07T15:48:05;7.53;;;3.97;;
485;SDS011;229;48.734;9.340;2023-05-07T15:50:32;11.10;;;4.00;;
485;SDS011;229;48.734;9.340;2023-05-07T15:52:59;11.70;;;3.57;;